Time;durP1;ratioP1;P1;durP2;ratioP2;P2;SDS_P1;SDS_P2;PMS_P1;PMS_P2;Temp;Humidity;BMP_temperature;BMP_pressure;BME280_temperature;BME280_humidity;BME280_pressure;Samples;Min_cycle;Max_cycle;Signal;HPM_P1;HPM_P2
2023/06/19 20:59:46;;;;;;;5.13;2.30;;;;;;;25.24;64.40;96010.91;5112849;27;20940;-70
2023/06/19 21:02:13;;;;;;;4.40;2.47;;;;;;;25.25;63.76;96005.28;5113136;28;20297;-69
2023/06/19 21:04:39;;;;;;;4.32;2.13;;;;;;;25.41;62.28;96006.03;5113032;27;20678;-69
2023/06/19 21:07:06;;;;;;;4.55;2.08;;;;;;;25.42;62.00;96002.22;5113590;27;20213;-70
2023/06/19 21:09:32;;;;;;;3.25;2.20;;;;;;;25.13;63.79;95992.31;5112969;27;20203;-69
2023/06/19 21:11:59;;;;;;;5.28;2.58;;;;;;;25.13;64.33;95990.44;5113336;27;20919;-70
2023/06/19 21:14:25;;;;;;;3.63;2.20;;;;;;;24.81;65.28;95989.94;5112980;28;20219;-70
2023/06/19 21:16:56;;;;;;;4.68;2.65;;;;;;;24.83;66.56;95987.75;5113830;27;20726;-70
2023/06/19 21:19:23;;;;;;;6.30;2.55;;;;;;;24.77;65.83;95994.25;5112682;28;20997;-70
2023/06/19 21:21:49;;;;;;;5.65;2.47;;;;;;;24.76;65.17;95995.31;5113240;27;20226;-69
2023/06/19 21:24:16;;;;;;;2.92;1.90;;;;;;;24.75;66.28;96001.78;5113869;27;20209;-70
2023/06/19 21:26:42;;;;;;;4.75;2.42;;;;;;;24.66;66.21;96003.41;5113500;27;20690;-70
2023/06/19 21:29:09;;;;;;;5.50;2.00;;;;;;;24.62;66.45;95996.94;5112866;28;20194;-70
2023/06/19 21:31:35;;;;;;;3.53;2.38;;;;;;;24.51;66.79;96005.28;5113077;28;20226;-70
2023/06/19 21:34:03;;;;;;;4.20;2.30;;;;;;;24.55;66.48;96002.88;5113221;28;20738;-70
2023/06/19 21:36:30;;;;;;;5.15;3.20;;;;;;;24.47;67.39;96003.41;5113249;28;20202;-71
2023/06/19 21:38:56;;;;;;;6.53;2.35;;;;;;;24.45;67.18;95997.47;5112534;27;20770;-70
2023/06/19 21:41:23;;;;;;;4.80;2.08;;;;;;;24.41;67.46;95993.69;5113335;28;20237;-71
2023/06/19 21:43:49;;;;;;;4.80;2.38;;;;;;;24.35;68.17;96005.50;5113095;27;20203;-70
2023/06/19 21:46:16;;;;;;;4.22;2.60;;;;;;;24.26;68.55;95999.84;5113252;27;20214;-70
2023/06/19 21:48:42;;;;;;;3.38;2.20;;;;;;;23.90;69.45;96008.09;5112681;27;20237;-71
2023/06/19 21:51:10;;;;;;;5.15;2.30;;;;;;;24.03;69.91;96007.59;5113103;27;20230;-70
2023/06/19 21:53:36;;;;;;;5.45;2.38;;;;;;;23.93;71.10;96004.91;5112600;27;21283;-70
2023/06/19 21:56:03;;;;;;;6.05;2.80;;;;;;;23.82;72.04;96005.94;5113319;28;20194;-70
2023/06/19 21:58:29;;;;;;;5.60;2.45;;;;;;;23.79;72.81;96000.25;5112393;27;20219;-70
2023/06/19 22:00:56;;;;;;;4.90;2.03;;;;;;;23.66;73.32;95998.84;5112619;28;20889;-70
2023/06/19 22:03:23;;;;;;;5.95;2.40;;;;;;;23.48;74.33;95999.28;5113070;28;20968;-70
2023/06/19 22:05:49;;;;;;;6.47;2.53;;;;;;;23.34;75.29;95992.81;5113245;27;20213;-70
2023/06/19 22:08:17;;;;;;;5.22;2.55;;;;;;;23.39;74.37;95990.09;5112182;27;20205;-70
2023/06/19 22:10:43;;;;;;;3.92;2.58;;;;;;;23.33;74.00;95995.72;5101299;28;20218;-70
2023/06/19 22:13:11;;;;;;;6.18;2.30;;;;;;;23.16;76.23;95994.31;5099303;27;20199;-70
2023/06/19 22:15:38;;;;;;;9.00;2.65;;;;;;;22.95;77.58;95997.88;5099074;28;20202;-70
2023/06/19 22:18:05;;;;;;;3.97;2.20;;;;;;;22.79;78.40;95983.53;5098527;28;20227;-70
2023/06/19 22:20:31;;;;;;;8.02;2.20;;;;;;;22.84;77.71;95990.84;5098987;27;20214;-70
2023/06/19 22:22:58;;;;;;;4.20;2.15;;;;;;;22.60;78.93;95991.47;5099001;28;20231;-71
2023/06/19 22:25:25;;;;;;;4.15;2.60;;;;;;;22.63;78.40;95978.31;5099000;28;20202;-70
2023/06/19 22:27:54;;;;;;;6.05;2.88;;;;;;;22.51;78.60;95980.38;5098217;28;20580;-70
2023/06/19 22:30:21;;;;;;;4.55;2.63;;;;;;;22.46;79.08;95974.97;5099169;28;20199;-70
2023/06/19 22:32:48;;;;;;;4.57;2.80;;;;;;;22.24;80.27;95979.59;5099015;28;20222;-70
2023/06/19 22:35:14;;;;;;;8.35;2.47;;;;;;;22.05;81.16;95967.59;5099161;28;20512;-70
2023/06/19 22:37:40;;;;;;;8.05;2.40;;;;;;;21.84;83.30;95969.53;5098538;28;20213;-70
2023/06/19 22:40:08;;;;;;;3.67;2.17;;;;;;;21.92;83.01;95967.19;5098864;28;20219;-70
2023/06/19 22:42:37;;;;;;;4.97;2.08;;;;;;;22.09;82.04;95974.06;5098965;28;20230;-70
2023/06/19 22:45:04;;;;;;;4.80;2.45;;;;;;;21.93;82.50;95966.16;5099086;28;21079;-70
2023/06/19 22:47:31;;;;;;;6.18;2.55;;;;;;;21.94;82.69;95961.56;5098724;28;20195;-70
2023/06/19 22:49:57;;;;;;;3.78;1.90;;;;;;;21.54;84.96;95953.09;5098912;28;20199;-70
2023/06/19 22:52:24;;;;;;;5.60;2.42;;;;;;;21.40;85.88;95959.06;5098723;28;20232;-70
2023/06/19 22:54:50;;;;;;;3.67;2.08;;;;;;;21.38;86.71;95945.91;5099093;28;20682;-70
2023/06/19 22:57:17;;;;;;;4.70;2.50;;;;;;;21.51;85.71;95951.75;5098351;28;20219;-71
2023/06/19 22:59:45;;;;;;;3.15;2.03;;;;;;;21.66;85.28;95953.75;5098493;28;20233;-70
2023/06/19 23:02:11;;;;;;;4.32;2.30;;;;;;;21.52;85.09;95958.72;5099132;28;20222;-70
2023/06/19 23:04:38;;;;;;;3.85;2.30;;;;;;;21.42;85.41;95956.94;5098651;28;20199;-70
2023/06/19 23:07:05;;;;;;;5.25;2.55;;;;;;;21.46;85.63;95950.84;5098214;28;20199;-70
2023/06/19 23:09:32;;;;;;;4.50;2.63;;;;;;;21.36;85.62;95947.22;5098058;28;20222;-69
2023/06/19 23:12:00;;;;;;;4.68;2.10;;;;;;;21.11;86.78;95947.72;5098603;28;20243;-70
2023/06/19 23:14:28;;;;;;;4.50;2.42;;;;;;;21.07;86.92;95938.56;5098614;28;20231;-70
2023/06/19 23:16:57;;;;;;;4.90;2.50;;;;;;;21.07;86.84;95937.75;5098342;28;20649;-70
2023/06/19 23:19:24;;;;;;;4.93;2.60;;;;;;;21.01;86.30;95938.75;5097659;28;20281;-70
2023/06/19 23:21:50;;;;;;;4.07;2.05;;;;;;;21.11;86.14;95922.81;5097058;28;20344;-70
2023/06/19 23:24:17;;;;;;;5.10;2.47;;;;;;;20.92;87.92;95924.94;5098483;28;20210;-70
2023/06/19 23:26:43;;;;;;;5.00;2.47;;;;;;;20.94;87.75;95924.72;5098113;28;20218;-70
2023/06/19 23:29:10;;;;;;;4.60;1.75;;;;;;;20.86;87.89;95928.63;5097304;28;20219;-70
2023/06/19 23:31:39;;;;;;;3.92;2.55;;;;;;;20.75;88.87;95922.56;5098055;28;20222;-70
2023/06/19 23:34:06;;;;;;;3.22;1.85;;;;;;;20.77;89.27;95912.44;5098138;28;20290;-70
2023/06/19 23:36:33;;;;;;;5.78;2.47;;;;;;;20.60;90.30;95915.09;5097993;27;20301;-70
2023/06/19 23:39:00;;;;;;;3.97;2.35;;;;;;;20.57;90.52;95917.44;5097778;28;20200;-70
2023/06/19 23:41:27;;;;;;;3.85;2.28;;;;;;;20.49;91.39;95910.69;5097810;28;20766;-70
2023/06/19 23:43:53;;;;;;;4.30;2.58;;;;;;;20.68;90.48;95917.34;5097930;28;20249;-70
2023/06/19 23:46:20;;;;;;;3.22;1.90;;;;;;;20.40;90.80;95922.03;5098697;28;20206;-70
2023/06/19 23:48:46;;;;;;;4.78;2.35;;;;;;;20.28;92.06;95913.28;5097143;28;20226;-70
2023/06/19 23:51:14;;;;;;;3.67;2.47;;;;;;;20.13;93.71;95904.22;5097404;28;20223;-70
2023/06/19 23:53:41;;;;;;;4.15;1.98;;;;;;;20.07;95.17;95914.00;5097837;28;20215;-70
2023/06/19 23:56:07;;;;;;;4.35;2.38;;;;;;;20.17;94.13;95903.47;5098527;28;20218;-70
2023/06/19 23:58:33;;;;;;;2.70;1.90;;;;;;;20.43;92.74;95911.66;5097244;28;20214;-70
